Time;durP1;ratioP1;P1;durP2;ratioP2;P2;SDS_P1;SDS_P2;PMS_P1;PMS_P2;Temp;Humidity;BMP_temperature;BMP_pressure;BME280_temperature;BME280_humidity;BME280_pressure;Samples;Min_cycle;Max_cycle;Signal;HPM_P1;HPM_P2
2023/03/12 00:01:51;;;;;;;21.92;7.22;;;8.80;91.00;;;;;;5060639;28;20092;-57
2023/03/12 00:04:16;;;;;;;20.15;6.80;;;8.80;91.00;;;;;;5045420;28;20037;-57
2023/03/12 00:06:42;;;;;;;26.50;7.85;;;8.80;91.00;;;;;;5045237;28;20095;-57
2023/03/12 00:09:08;;;;;;;25.27;7.28;;;8.80;91.00;;;;;;5045279;28;20125;-58
2023/03/12 00:11:33;;;;;;;18.63;7.00;;;8.80;91.00;;;;;;5045430;28;20041;-57
2023/03/12 00:13:59;;;;;;;22.45;6.78;;;8.80;91.00;;;;;;5045302;28;20040;-58
2023/03/12 00:16:24;;;;;;;21.23;7.57;;;8.80;91.00;;;;;;5045555;28;20018;-58
2023/03/12 00:18:51;;;;;;;20.92;6.75;;;8.80;91.00;;;;;;5045207;28;20045;-57
2023/03/12 00:21:17;;;;;;;23.85;7.47;;;8.80;91.00;;;;;;5045079;28;20029;-57
2023/03/12 00:23:42;;;;;;;20.98;6.65;;;8.70;91.00;;;;;;5045185;28;20064;-58
2023/03/12 00:26:12;;;;;;;23.00;6.88;;;8.80;91.00;;;;;;5045056;28;20037;-58
2023/03/12 00:28:38;;;;;;;19.40;7.18;;;8.70;91.00;;;;;;5045051;28;20037;-57
2023/03/12 00:31:11;;;;;;;22.17;6.57;;;8.70;91.00;;;;;;5060446;28;20087;-57
2023/03/12 00:33:37;;;;;;;20.35;6.45;;;8.70;91.00;;;;;;5045007;28;20029;-57
2023/03/12 00:36:03;;;;;;;19.00;6.75;;;8.70;91.00;;;;;;5045120;28;20035;-57
2023/03/12 00:38:28;;;;;;;19.83;7.05;;;8.70;91.00;;;;;;5044814;28;20060;-57
2023/03/12 00:40:54;;;;;;;22.85;7.15;;;8.70;91.00;;;;;;5045006;28;20117;-57
2023/03/12 00:43:19;;;;;;;18.15;7.03;;;8.70;91.00;;;;;;5045177;28;20517;-57
2023/03/12 00:45:45;;;;;;;18.45;6.47;;;8.60;91.00;;;;;;5044986;28;20113;-58
2023/03/12 00:48:10;;;;;;;19.55;6.45;;;8.60;91.30;;;;;;5043593;28;20034;-58
2023/03/12 00:50:36;;;;;;;18.33;6.38;;;8.60;91.30;;;;;;5044829;28;20037;-58
2023/03/12 00:53:01;;;;;;;18.50;7.40;;;8.70;91.10;;;;;;5044885;28;20025;-57
2023/03/12 00:55:27;;;;;;;16.92;7.00;;;8.60;91.00;;;;;;5045022;28;20030;-58
2023/03/12 00:57:53;;;;;;;19.88;7.47;;;8.70;91.10;;;;;;5044672;28;20030;-58
2023/03/12 01:00:18;;;;;;;18.80;7.03;;;8.60;91.00;;;;;;5044942;28;20048;-57
2023/03/12 01:02:44;;;;;;;18.27;6.70;;;8.60;91.10;;;;;;5063056;28;20091;-57
2023/03/12 01:05:10;;;;;;;21.65;7.20;;;8.60;91.10;;;;;;5048800;28;20086;-57
2023/03/12 01:07:36;;;;;;;18.77;6.43;;;8.70;91.10;;;;;;5048667;28;20026;-58
2023/03/12 01:10:02;;;;;;;20.08;7.20;;;8.60;91.10;;;;;;5048318;28;20119;-58
2023/03/12 01:12:28;;;;;;;15.73;6.25;;;8.60;91.10;;;;;;5048623;28;20081;-58
2023/03/12 01:14:53;;;;;;;20.13;6.82;;;8.60;91.10;;;;;;5048724;28;20029;-57
2023/03/12 01:17:19;;;;;;;15.63;6.80;;;8.50;91.10;;;;;;5048516;28;20038;-57
2023/03/12 01:19:44;;;;;;;16.52;6.78;;;8.60;91.20;;;;;;5048511;28;20053;-58
2023/03/12 01:22:10;;;;;;;21.73;6.35;;;8.60;91.20;;;;;;5048348;28;20106;-58
2023/03/12 01:24:35;;;;;;;17.00;6.53;;;8.50;91.10;;;;;;5063412;28;20087;-58
2023/03/12 01:27:01;;;;;;;13.15;6.15;;;8.50;91.10;;;;;;5048401;28;20052;-57
2023/03/12 01:29:27;;;;;;;16.23;6.85;;;8.60;91.20;;;;;;5047829;28;20025;-57
2023/03/12 01:31:52;;;;;;;10.15;6.07;;;8.50;91.10;;;;;;5047981;28;20041;-57
2023/03/12 01:34:18;;;;;;;17.65;6.00;;;8.50;91.20;;;;;;5048055;28;20028;-55
2023/03/12 01:36:45;;;;;;;18.13;5.95;;;8.50;91.10;;;;;;5047836;28;20048;-55
2023/03/12 01:39:10;;;;;;;12.23;6.18;;;8.50;91.10;;;;;;5048134;28;20104;-55
2023/03/12 01:41:36;;;;;;;15.93;6.20;;;8.50;91.10;;;;;;5047993;28;20034;-55
2023/03/12 01:44:02;;;;;;;15.93;6.32;;;8.50;91.10;;;;;;5063068;28;20036;-55
2023/03/12 01:46:28;;;;;;;14.05;6.13;;;8.50;91.20;;;;;;5048108;28;20386;-55
2023/03/12 01:49:14;;;;;;;14.35;6.57;;;8.50;91.20;;;;;;5047419;28;20031;-55
2023/03/12 01:51:50;;;;;;;;;;;8.50;91.20;;;;;;5063531;28;20092;-55
2023/03/12 01:54:21;;;;;;;13.18;5.38;;;8.50;91.20;;;;;;5046422;28;19916;-55
2023/03/12 01:56:46;;;;;;;15.85;5.72;;;8.50;91.10;;;;;;5047726;28;20068;-55
2023/03/12 01:59:19;;;;;;;10.05;5.50;;;8.50;91.20;;;;;;5063042;28;20073;-55
2023/03/12 02:01:45;;;;;;;12.15;5.38;;;8.50;91.20;;;;;;5047517;28;20026;-55
2023/03/12 02:04:11;;;;;;;16.73;6.18;;;8.50;91.20;;;;;;5062876;28;20112;-55
2023/03/12 02:06:44;;;;;;;12.10;5.47;;;8.50;91.20;;;;;;5062776;28;20030;-55
2023/03/12 02:09:11;;;;;;;10.52;5.10;;;8.40;91.10;;;;;;5045880;28;20036;-54
2023/03/12 02:11:37;;;;;;;14.18;5.45;;;8.50;91.20;;;;;;5062809;28;20030;-55
2023/03/12 02:14:02;;;;;;;10.38;6.07;;;8.40;91.20;;;;;;5046192;28;20028;-55
2023/03/12 02:16:28;;;;;;;11.70;5.25;;;8.40;91.20;;;;;;5047474;28;20081;-55
2023/03/12 02:18:53;;;;;;;11.77;5.32;;;8.40;91.20;;;;;;5062666;28;20052;-55
2023/03/12 02:21:24;;;;;;;9.77;5.30;;;8.40;91.20;;;;;;5045737;28;20057;-55
2023/03/12 02:24:12;;;;;;;12.02;5.20;;;8.40;91.20;;;;;;5046109;28;20030;-55
2023/03/12 02:26:38;;;;;;;11.13;5.15;;;8.40;91.20;;;;;;5047272;28;20045;-55
2023/03/12 02:29:04;;;;;;;10.63;5.28;;;8.50;91.20;;;;;;5047085;28;20382;-56
2023/03/12 02:31:33;;;;;;;13.05;5.57;;;8.50;91.20;;;;;;5047250;28;20025;-55
2023/03/12 02:33:59;;;;;;;12.50;5.38;;;8.40;91.20;;;;;;5062135;28;20030;-55
2023/03/12 02:36:25;;;;;;;11.13;5.28;;;8.40;91.20;;;;;;5046981;28;20032;-55
2023/03/12 02:38:51;;;;;;;11.18;5.03;;;8.40;91.20;;;;;;5046841;28;20033;-55
2023/03/12 02:41:36;;;;;;;11.85;5.30;;;8.40;91.30;;;;;;5046989;28;20052;-55
2023/03/12 02:44:04;;;;;;;7.60;4.70;;;8.40;91.30;;;;;;5046998;28;20042;-55
2023/03/12 02:46:35;;;;;;;11.82;5.03;;;8.40;91.30;;;;;;5061637;28;20041;-55
2023/03/12 02:49:01;;;;;;;13.57;4.93;;;8.40;91.30;;;;;;5062031;28;20038;-55
2023/03/12 02:51:26;;;;;;;13.20;4.57;;;8.40;91.30;;;;;;5045397;28;20043;-55
2023/03/12 02:53:53;;;;;;;13.38;4.72;;;8.40;91.30;;;;;;5046650;28;20032;-55
2023/03/12 02:56:25;;;;;;;8.27;4.22;;;8.40;91.60;;;;;;5046744;28;20022;-55
2023/03/12 02:58:51;;;;;;;8.10;4.55;;;8.40;91.30;;;;;;5046517;28;20026;-55
2023/03/12 03:01:16;;;;;;;8.50;4.78;;;8.30;91.50;;;;;;5046610;28;20037;-55
2023/03/12 03:03:42;;;;;;;13.18;5.45;;;8.40;91.30;;;;;;5046513;28;20037;-54
2023/03/12 03:06:08;;;;;;;10.23;4.47;;;8.30;91.20;;;;;;5046093;28;20036;-55
2023/03/12 03:08:33;;;;;;;10.15;4.70;;;8.30;91.30;;;;;;5061746;28;20026;-55
2023/03/12 03:11:01;;;;;;;8.20;4.85;;;8.30;91.30;;;;;;5046430;28;20030;-55
2023/03/12 03:13:28;;;;;;;10.95;4.63;;;8.30;91.30;;;;;;5045986;28;20049;-55
2023/03/12 03:15:53;;;;;;;8.15;4.57;;;8.30;91.30;;;;;;5046245;28;20072;-55
2023/03/12 03:18:19;;;;;;;7.88;4.28;;;8.30;91.30;;;;;;5046173;28;20025;-55
2023/03/12 03:20:44;;;;;;;9.60;4.80;;;8.30;91.70;;;;;;5046158;28;20029;-55
2023/03/12 03:23:10;;;;;;;12.02;4.43;;;8.30;91.40;;;;;;5046143;28;20032;-55
2023/03/12 03:25:35;;;;;;;6.13;3.92;;;8.30;91.40;;;;;;5045704;28;20349;-55
2023/03/12 03:28:01;;;;;;;9.73;4.70;;;8.30;91.40;;;;;;5046024;28;20029;-55
2023/03/12 03:30:26;;;;;;;8.45;4.53;;;8.30;91.40;;;;;;5045792;28;20061;-55
2023/03/12 03:32:52;;;;;;;8.18;4.82;;;8.30;91.40;;;;;;5045734;28;20497;-55
2023/03/12 03:35:18;;;;;;;7.30;4.13;;;8.30;91.40;;;;;;5045839;28;20037;-55
2023/03/12 03:37:44;;;;;;;8.48;4.15;;;8.30;91.40;;;;;;5045707;28;20036;-55
2023/03/12 03:40:11;;;;;;;8.32;4.22;;;8.20;91.40;;;;;;5045745;28;20029;-55
2023/03/12 03:42:37;;;;;;;7.35;4.00;;;8.30;91.40;;;;;;5045946;28;20104;-55
2023/03/12 03:45:04;;;;;;;8.23;4.82;;;8.20;91.40;;;;;;5045628;28;20017;-56
2023/03/12 03:47:30;;;;;;;7.72;4.60;;;8.20;91.40;;;;;;5045838;28;20026;-55
2023/03/12 03:49:55;;;;;;;6.93;3.70;;;8.20;91.60;;;;;;5045200;28;20048;-55
2023/03/12 03:52:21;;;;;;;5.82;4.13;;;8.20;91.40;;;;;;5045572;28;20053;-55
2023/03/12 03:54:47;;;;;;;5.88;4.05;;;8.20;91.40;;;;;;5045601;28;20026;-55
2023/03/12 03:57:12;;;;;;;10.93;4.40;;;8.20;91.40;;;;;;5045634;28;20026;-55
2023/03/12 03:59:38;;;;;;;8.55;4.00;;;8.20;91.40;;;;;;5045525;28;20037;-55
2023/03/12 04:02:03;;;;;;;6.85;4.38;;;8.20;91.50;;;;;;5045619;28;20036;-55
2023/03/12 04:04:30;;;;;;;9.18;3.75;;;8.20;91.50;;;;;;5045507;28;20037;-55
2023/03/12 04:06:55;;;;;;;5.75;4.15;;;8.20;91.50;;;;;;5045631;28;20026;-55
2023/03/12 04:09:21;;;;;;;5.88;3.60;;;8.10;91.50;;;;;;5045195;28;20131;-55
2023/03/12 04:11:46;;;;;;;5.32;3.72;;;8.30;91.60;;;;;;5045409;28;20029;-55
2023/03/12 04:14:12;;;;;;;6.25;3.50;;;8.10;91.50;;;;;;5045455;28;20116;-55
2023/03/12 04:16:38;;;;;;;5.88;3.65;;;8.10;91.50;;;;;;5045208;28;20028;-55
2023/03/12 04:19:03;;;;;;;5.80;3.60;;;8.10;91.50;;;;;;5045307;28;20554;-55
2023/03/12 04:21:29;;;;;;;6.70;3.67;;;8.10;91.50;;;;;;5060563;28;20030;-55
2023/03/12 04:23:54;;;;;;;7.07;3.50;;;8.10;91.50;;;;;;5045287;28;20036;-55
2023/03/12 04:26:20;;;;;;;7.03;3.60;;;8.20;91.50;;;;;;5045284;28;20079;-55
2023/03/12 04:28:46;;;;;;;5.25;3.70;;;8.10;91.60;;;;;;5045034;28;20049;-55
2023/03/12 04:31:11;;;;;;;7.68;3.75;;;8.10;91.50;;;;;;5045040;28;20032;-55
2023/03/12 04:33:37;;;;;;;6.45;3.70;;;8.10;91.50;;;;;;5045334;28;20115;-55
2023/03/12 04:36:03;;;;;;;7.72;3.17;;;8.10;91.60;;;;;;5045165;28;20481;-55
2023/03/12 04:38:29;;;;;;;5.95;3.08;;;8.10;91.60;;;;;;5049218;28;20045;-55
2023/03/12 04:41:21;;;;;;;6.03;3.08;;;8.10;91.60;;;;;;5049110;28;20025;-55
2023/03/12 04:43:46;;;;;;;7.43;3.53;;;8.10;91.60;;;;;;5047882;28;20055;-55
2023/03/12 04:46:12;;;;;;;4.50;3.10;;;8.10;91.60;;;;;;5049113;28;20076;-55
2023/03/12 04:48:38;;;;;;;5.65;3.63;;;8.10;91.60;;;;;;5049022;28;20151;-55
2023/03/12 04:51:04;;;;;;;5.32;3.42;;;8.10;91.50;;;;;;5049136;28;20192;-55
2023/03/12 04:53:29;;;;;;;5.50;3.72;;;8.10;91.60;;;;;;5049082;28;20021;-55
2023/03/12 04:55:55;;;;;;;6.40;3.75;;;8.10;91.60;;;;;;5048838;28;20030;-55
2023/03/12 04:58:21;;;;;;;4.13;3.33;;;8.10;91.60;;;;;;5048938;28;20050;-55
2023/03/12 05:00:47;;;;;;;6.75;3.13;;;8.10;91.60;;;;;;5048764;28;20167;-54
2023/03/12 05:03:13;;;;;;;5.20;3.20;;;8.10;91.60;;;;;;5064210;28;20017;-55
2023/03/12 05:05:38;;;;;;;4.68;3.10;;;8.10;91.50;;;;;;5047642;28;20026;-55
2023/03/12 05:08:04;;;;;;;5.93;3.53;;;8.10;91.60;;;;;;5048614;28;20037;-55
2023/03/12 05:10:30;;;;;;;4.35;2.90;;;8.10;91.60;;;;;;5048573;28;20091;-55
2023/03/12 05:12:55;;;;;;;5.85;3.20;;;8.10;91.60;;;;;;5063865;28;20108;-55
2023/03/12 05:15:21;;;;;;;7.13;3.78;;;8.10;91.60;;;;;;5048461;28;20032;-55
2023/03/12 05:17:46;;;;;;;5.28;2.92;;;8.10;91.60;;;;;;5063893;28;20030;-55
2023/03/12 05:20:12;;;;;;;6.45;3.05;;;8.10;91.60;;;;;;5048261;28;20036;-55
2023/03/12 05:22:38;;;;;;;6.20;3.20;;;8.10;91.70;;;;;;5048514;28;20026;-55
2023/03/12 05:25:04;;;;;;;5.35;2.97;;;8.20;91.70;;;;;;5048223;28;20490;-55
2023/03/12 05:27:29;;;;;;;5.70;3.22;;;8.10;91.70;;;;;;5063647;28;20048;-55
2023/03/12 05:29:55;;;;;;;3.90;2.47;;;8.10;91.70;;;;;;5048166;28;20466;-56
2023/03/12 05:32:20;;;;;;;5.50;2.85;;;8.10;91.70;;;;;;5048039;28;20029;-55
2023/03/12 05:34:46;;;;;;;4.13;2.67;;;8.10;91.70;;;;;;5048164;28;20101;-56
2023/03/12 05:37:11;;;;;;;4.55;2.63;;;8.10;91.70;;;;;;5048246;28;20033;-55
2023/03/12 05:39:37;;;;;;;4.95;2.75;;;8.10;91.70;;;;;;5048034;28;20029;-56
2023/03/12 05:42:03;;;;;;;4.55;2.75;;;8.10;91.70;;;;;;5048165;28;20034;-55
2023/03/12 05:44:29;;;;;;;4.57;3.10;;;8.10;91.70;;;;;;5063192;28;20052;-55
2023/03/12 05:46:54;;;;;;;3.70;2.70;;;8.00;91.70;;;;;;5047736;28;20045;-55
2023/03/12 05:49:20;;;;;;;3.13;2.60;;;8.10;91.70;;;;;;5047669;28;20033;-55
2023/03/12 05:51:47;;;;;;;6.18;2.80;;;8.30;91.80;;;;;;5047712;28;20033;-55
2023/03/12 05:54:12;;;;;;;4.07;2.55;;;8.10;91.70;;;;;;5047953;28;20116;-55
2023/03/12 05:56:38;;;;;;;3.85;2.53;;;8.10;92.00;;;;;;5047774;28;20120;-55
2023/03/12 05:59:04;;;;;;;4.35;2.63;;;8.10;91.80;;;;;;5047604;28;20033;-55
2023/03/12 06:01:32;;;;;;;4.70;2.97;;;8.00;91.70;;;;;;5047608;28;20117;-55
2023/03/12 06:03:58;;;;;;;5.45;3.13;;;8.00;91.80;;;;;;5047384;28;20081;-55
2023/03/12 06:06:23;;;;;;;4.00;2.42;;;8.10;91.80;;;;;;5047634;28;20029;-58
2023/03/12 06:08:49;;;;;;;3.85;2.42;;;8.00;91.80;;;;;;5047431;28;20037;-58
2023/03/12 06:11:15;;;;;;;3.35;2.58;;;8.10;91.80;;;;;;5047180;28;20085;-58
2023/03/12 06:13:40;;;;;;;3.67;2.60;;;8.00;92.10;;;;;;5047530;28;20085;-58
2023/03/12 06:16:17;;;;;;;3.42;2.50;;;8.00;91.80;;;;;;5062244;28;20147;-58
2023/03/12 06:18:43;;;;;;;3.70;2.50;;;8.00;91.80;;;;;;5047311;28;20025;-58
2023/03/12 06:21:14;;;;;;;4.07;2.28;;;8.00;91.80;;;;;;5047113;28;20038;-58
2023/03/12 06:23:39;;;;;;;3.80;2.40;;;8.00;91.80;;;;;;5047167;28;20056;-58
2023/03/12 06:26:05;;;;;;;5.82;2.85;;;8.00;91.80;;;;;;5047303;28;20030;-58
2023/03/12 06:28:31;;;;;;;3.63;2.70;;;8.10;91.80;;;;;;5047146;28;20087;-58
2023/03/12 06:30:57;;;;;;;4.88;2.85;;;8.00;91.80;;;;;;5047055;28;20022;-58
2023/03/12 06:33:22;;;;;;;3.35;2.55;;;8.10;91.80;;;;;;5047231;28;20528;-58
2023/03/12 06:35:48;;;;;;;5.57;2.65;;;8.00;91.80;;;;;;5046703;28;20026;-58
2023/03/12 06:38:14;;;;;;;4.53;2.40;;;8.00;91.80;;;;;;5062303;28;20056;-58
2023/03/12 06:40:39;;;;;;;3.00;2.70;;;8.00;91.80;;;;;;5046760;28;20466;-58
2023/03/12 06:43:10;;;;;;;3.45;2.17;;;8.10;91.90;;;;;;5046834;28;20030;-58
2023/03/12 06:45:36;;;;;;;5.03;2.50;;;8.00;91.90;;;;;;5046847;28;20085;-58
2023/03/12 06:48:02;;;;;;;3.03;2.42;;;8.00;91.80;;;;;;5046394;28;20045;-58
2023/03/12 06:50:28;;;;;;;3.38;2.08;;;8.00;91.80;;;;;;5046507;28;20458;-58
2023/03/12 06:52:53;;;;;;;6.22;2.30;;;8.00;91.80;;;;;;5046695;28;20029;-58
2023/03/12 06:55:19;;;;;;;2.70;2.20;;;8.00;91.90;;;;;;5046298;28;20025;-58
2023/03/12 06:57:44;;;;;;;4.05;2.45;;;8.10;91.90;;;;;;5046559;28;20026;-58
2023/03/12 07:00:11;;;;;;;2.53;1.98;;;8.10;92.10;;;;;;5045602;28;20049;-58
2023/03/12 07:02:36;;;;;;;3.10;2.17;;;8.10;91.90;;;;;;5046707;28;20038;-58
2023/03/12 07:05:02;;;;;;;4.22;2.53;;;8.10;91.90;;;;;;5046381;28;20033;-58
2023/03/12 07:07:27;;;;;;;2.47;2.00;;;8.10;91.90;;;;;;5045919;28;20033;-58
2023/03/12 07:09:53;;;;;;;3.05;2.10;;;8.10;91.80;;;;;;5061691;28;20030;-57
2023/03/12 07:12:18;;;;;;;4.03;2.60;;;8.10;91.80;;;;;;5046126;28;20093;-58
2023/03/12 07:14:44;;;;;;;2.95;2.15;;;8.10;91.80;;;;;;5046313;28;20037;-58
2023/03/12 07:17:09;;;;;;;5.20;2.25;;;8.10;91.80;;;;;;5046317;28;20021;-57
2023/03/12 07:19:35;;;;;;;5.13;2.00;;;8.10;91.80;;;;;;5045906;28;20170;-58
2023/03/12 07:22:00;;;;;;;3.22;1.95;;;8.10;91.80;;;;;;5046238;28;20034;-58
2023/03/12 07:24:26;;;;;;;2.30;2.10;;;8.10;91.80;;;;;;5045911;28;20038;-58
2023/03/12 07:26:52;;;;;;;3.47;2.10;;;8.10;91.80;;;;;;5045947;28;20033;-58
2023/03/12 07:29:17;;;;;;;2.63;1.90;;;8.10;92.10;;;;;;5046065;28;20030;-58
2023/03/12 07:31:43;;;;;;;3.75;2.00;;;8.10;91.80;;;;;;5045796;28;20025;-58
2023/03/12 07:34:08;;;;;;;3.67;1.98;;;8.10;91.80;;;;;;5045868;28;20037;-58
2023/03/12 07:36:34;;;;;;;2.90;1.80;;;8.10;91.90;;;;;;5046018;28;20042;-58
2023/03/12 07:38:59;;;;;;;3.13;1.88;;;8.10;91.90;;;;;;5045600;28;20478;-58
2023/03/12 07:41:25;;;;;;;4.20;1.98;;;8.10;91.90;;;;;;5045992;28;20133;-57
2023/03/12 07:43:51;;;;;;;4.70;2.08;;;8.10;91.90;;;;;;5045688;28;20029;-58
2023/03/12 07:46:16;;;;;;;2.65;2.20;;;8.20;92.00;;;;;;5045532;28;20060;-58
2023/03/12 07:48:42;;;;;;;3.03;2.20;;;8.20;92.00;;;;;;5045570;28;20033;-58
2023/03/12 07:51:07;;;;;;;2.10;1.80;;;8.20;92.00;;;;;;5045455;28;20030;-58
2023/03/12 07:53:33;;;;;;;2.80;2.00;;;8.10;91.90;;;;;;5045701;28;20109;-58
2023/03/12 07:55:58;;;;;;;5.45;2.00;;;8.20;92.00;;;;;;5045669;28;20032;-58
2023/03/12 07:58:24;;;;;;;2.30;1.75;;;8.20;92.00;;;;;;5045168;28;20022;-58
2023/03/12 08:00:49;;;;;;;2.92;1.67;;;8.10;91.90;;;;;;5045498;28;20056;-58
2023/03/12 08:03:15;;;;;;;2.08;1.70;;;8.20;92.00;;;;;;5045162;28;20040;-58
2023/03/12 08:05:41;;;;;;;2.78;1.70;;;8.20;91.90;;;;;;5045164;28;20069;-58
2023/03/12 08:08:07;;;;;;;2.17;1.98;;;8.20;91.90;;;;;;5045482;28;20033;-58
2023/03/12 08:10:32;;;;;;;4.50;2.47;;;8.20;91.90;;;;;;5044399;28;20086;-58
2023/03/12 08:12:58;;;;;;;3.45;1.98;;;8.30;91.90;;;;;;5045102;28;20032;-58
2023/03/12 08:15:24;;;;;;;2.53;1.92;;;8.20;91.80;;;;;;5060656;28;20052;-57
2023/03/12 08:17:49;;;;;;;2.92;1.95;;;8.30;91.80;;;;;;5045068;28;20044;-58
2023/03/12 08:20:16;;;;;;;2.72;1.90;;;8.30;91.80;;;;;;5045329;28;20029;-58
2023/03/12 08:22:41;;;;;;;2.92;2.08;;;8.30;91.80;;;;;;5044991;28;20118;-58
2023/03/12 08:25:07;;;;;;;2.72;2.05;;;8.30;91.70;;;;;;5045150;28;20029;-58
2023/03/12 08:27:33;;;;;;;3.22;2.00;;;8.30;91.70;;;;;;5045166;28;20033;-58
2023/03/12 08:29:59;;;;;;;2.78;1.95;;;8.40;91.70;;;;;;5044526;28;20031;-58
2023/03/12 08:32:24;;;;;;;3.13;2.05;;;8.40;91.70;;;;;;5045167;28;20049;-57
2023/03/12 08:34:50;;;;;;;3.72;1.90;;;8.40;91.60;;;;;;5044980;28;20025;-58
2023/03/12 08:37:15;;;;;;;3.80;1.80;;;8.40;91.60;;;;;;5044929;28;20159;-58
2023/03/12 08:39:41;;;;;;;2.30;1.60;;;8.40;91.70;;;;;;5044966;28;20083;-58
2023/03/12 08:42:06;;;;;;;2.30;1.80;;;8.50;91.70;;;;;;5044685;28;20053;-58
2023/03/12 08:44:32;;;;;;;3.75;2.00;;;8.50;91.70;;;;;;5044969;28;20029;-58
2023/03/12 08:46:58;;;;;;;1.88;1.73;;;8.40;91.70;;;;;;5044853;28;20033;-58
2023/03/12 08:49:23;;;;;;;4.35;2.00;;;8.50;91.70;;;;;;5044455;28;20064;-58
2023/03/12 08:51:50;;;;;;;2.17;1.60;;;8.50;91.60;;;;;;5060086;28;20387;-58
2023/03/12 08:54:17;;;;;;;2.53;1.67;;;8.50;91.70;;;;;;5044503;28;20044;-58
2023/03/12 08:56:43;;;;;;;2.53;1.90;;;8.50;91.60;;;;;;5044711;28;20401;-58
2023/03/12 08:59:11;;;;;;;2.10;1.90;;;8.50;91.60;;;;;;5045071;28;20109;-58
2023/03/12 09:01:37;;;;;;;4.47;1.90;;;8.60;91.70;;;;;;5044335;28;20060;-58
2023/03/12 09:04:03;;;;;;;2.08;1.70;;;8.60;91.70;;;;;;5044682;28;20033;-58
2023/03/12 09:06:29;;;;;;;2.65;2.00;;;8.60;91.70;;;;;;5044396;28;20033;-58
2023/03/12 09:08:54;;;;;;;3.38;2.08;;;8.60;91.80;;;;;;5044362;28;20056;-58
2023/03/12 09:11:20;;;;;;;2.47;1.60;;;8.60;92.10;;;;;;5044678;28;20033;-58
2023/03/12 09:13:45;;;;;;;4.50;2.20;;;8.60;92.40;;;;;;5044507;28;20030;-58
2023/03/12 09:16:11;;;;;;;2.20;1.70;;;8.60;92.40;;;;;;5043405;28;20041;-58
2023/03/12 09:18:37;;;;;;;2.05;1.85;;;8.70;92.60;;;;;;5044480;28;20032;-58
2023/03/12 09:21:02;;;;;;;2.53;2.22;;;8.70;92.80;;;;;;5044403;28;20033;-58
2023/03/12 09:23:28;;;;;;;4.05;2.40;;;8.70;92.90;;;;;;5047207;28;20128;-58
2023/03/12 09:25:54;;;;;;;4.32;2.33;;;8.80;93.20;;;;;;5047946;28;20029;-58
2023/03/12 09:28:19;;;;;;;3.40;2.30;;;8.80;93.70;;;;;;5063614;28;20044;-58
2023/03/12 09:30:45;;;;;;;6.47;2.65;;;8.80;93.70;;;;;;5047975;28;20030;-58
2023/03/12 09:33:12;;;;;;;8.80;2.80;;;8.90;94.00;;;;;;5046730;28;20021;-58
2023/03/12 09:35:37;;;;;;;12.90;3.28;;;8.80;93.70;;;;;;5045404;28;20028;-58
2023/03/12 09:38:03;;;;;;;16.80;3.10;;;9.00;93.90;;;;;;5045489;28;20025;-58
2023/03/12 09:40:30;;;;;;;26.48;4.45;;;8.90;93.90;;;;;;5047590;28;20392;-59
2023/03/12 09:43:35;;;;;;;18.25;3.40;;;8.90;94.10;;;;;;5027898;28;20034;-58
2023/03/12 09:46:00;;;;;;;18.17;3.38;;;9.00;94.60;;;;;;5029972;28;20462;-58
2023/03/12 09:48:34;;;;;;;22.20;4.53;;;9.00;93.90;;;;;;5037002;28;20058;-58
2023/03/12 09:51:19;;;;;;;27.27;4.55;;;9.00;94.20;;;;;;5047489;28;20025;-58
2023/03/12 09:53:55;;;;;;;18.83;3.40;;;9.10;94.50;;;;;;5041917;28;20054;-58
2023/03/12 09:56:21;;;;;;;31.17;4.60;;;9.10;94.50;;;;;;5034448;28;20045;-58
2023/03/12 09:58:47;;;;;;;29.88;5.43;;;9.20;94.80;;;;;;5038733;28;20053;-58
2023/03/12 10:01:15;;;;;;;35.45;5.30;;;9.20;94.90;;;;;;5034577;28;20079;-58
2023/03/12 10:04:07;;;;;;;54.05;7.22;;;9.20;95.00;;;;;;5040691;28;20833;-58
2023/03/12 10:06:39;;;;;;;56.80;7.53;;;9.20;95.30;;;;;;5038928;28;20033;-58
2023/03/12 10:09:19;;;;;;;64.80;7.60;;;9.30;95.50;;;;;;5025202;28;20037;-58
2023/03/12 10:11:51;;;;;;;118.60;11.50;;;9.40;95.50;;;;;;5042822;28;20025;-58
2023/03/12 10:14:38;;;;;;;88.35;10.65;;;9.40;95.60;;;;;;5047068;28;20063;-58
2023/03/12 10:17:15;;;;;;;114.05;11.20;;;9.40;95.80;;;;;;5046915;28;20033;-57
2023/03/12 10:19:48;;;;;;;92.00;9.85;;;9.50;96.20;;;;;;5040518;28;20034;-58
2023/03/12 10:22:32;;;;;;;74.13;8.48;;;9.60;96.20;;;;;;5044500;28;20099;-58
2023/03/12 10:25:44;;;;;;;94.82;9.75;;;9.60;96.20;;;;;;5049107;28;20034;-58
2023/03/12 10:28:18;;;;;;;99.18;10.88;;;9.60;96.20;;;;;;5041266;28;20037;-58
2023/03/12 10:30:50;;;;;;;122.85;12.90;;;9.60;96.30;;;;;;5057995;28;20033;-58
2023/03/12 10:33:17;;;;;;;111.70;12.13;;;9.70;96.50;;;;;;5049623;28;20021;-57
2023/03/12 10:35:43;;;;;;;100.75;12.55;;;9.80;96.50;;;;;;5043519;28;20026;-58
2023/03/12 10:38:17;;;;;;;115.88;11.00;;;9.80;96.50;;;;;;5041659;28;20490;-58
2023/03/12 10:40:42;;;;;;;113.03;10.77;;;9.90;96.50;;;;;;5045933;28;20104;-58
2023/03/12 10:43:08;;;;;;;132.63;12.18;;;10.00;96.70;;;;;;5029057;28;20363;-58
2023/03/12 10:45:56;;;;;;;150.65;12.82;;;10.00;96.60;;;;;;5026583;28;20045;-58
2023/03/12 10:48:23;;;;;;;97.43;11.27;;;9.90;96.70;;;;;;5041387;28;20022;-58
2023/03/12 10:51:01;;;;;;;121.32;13.70;;;10.00;96.70;;;;;;5028620;28;20128;-58
2023/03/12 10:53:28;;;;;;;89.97;10.88;;;10.00;96.80;;;;;;5026780;28;20029;-58
2023/03/12 10:56:15;;;;;;;102.60;11.75;;;10.30;97.00;;;;;;5050167;28;20022;-58
2023/03/12 10:58:42;;;;;;;260.92;23.15;;;10.10;96.90;;;;;;5041552;28;20094;-58
2023/03/12 11:01:19;;;;;;;144.88;14.65;;;10.10;97.10;;;;;;5034974;28;20097;-58
2023/03/12 11:03:45;;;;;;;129.80;14.18;;;10.20;97.20;;;;;;5033699;28;20029;-58
2023/03/12 11:06:26;;;;;;;172.07;16.40;;;10.20;97.50;;;;;;5041821;28;20025;-58
2023/03/12 11:09:10;;;;;;;112.53;13.52;;;10.30;97.60;;;;;;5060264;28;20033;-58
2023/03/12 11:11:36;;;;;;;120.05;13.20;;;10.30;97.50;;;;;;5065760;28;20072;-58
2023/03/12 11:14:24;;;;;;;139.50;15.80;;;10.40;97.50;;;;;;5065656;28;20029;-58
2023/03/12 11:16:50;;;;;;;133.10;14.93;;;10.40;97.50;;;;;;5043590;28;20036;-58
2023/03/12 11:19:45;;;;;;;145.40;16.58;;;10.40;97.60;;;;;;5046094;28;20033;-58
2023/03/12 11:22:14;;;;;;;149.32;16.55;;;10.50;97.70;;;;;;5046302;28;20041;-58
2023/03/12 11:25:04;;;;;;;176.75;16.70;;;10.50;97.70;;;;;;5048043;28;20080;-58
2023/03/12 11:27:44;;;;;;;132.15;15.77;;;10.60;97.70;;;;;;5049272;28;20033;-58
2023/03/12 11:30:15;;;;;;;137.90;15.52;;;10.60;97.60;;;;;;5056940;28;20083;-57
2023/03/12 11:32:43;;;;;;;170.80;17.75;;;10.60;97.60;;;;;;5046240;28;20039;-58
2023/03/12 11:35:13;;;;;;;142.80;16.33;;;10.70;98.00;;;;;;5063440;28;20052;-58
2023/03/12 11:37:51;;;;;;;178.27;18.77;;;10.70;97.80;;;;;;5061152;28;20051;-58
2023/03/12 11:40:36;;;;;;;178.93;17.90;;;10.80;97.80;;;;;;5063231;28;20033;-58
2023/03/12 11:43:17;;;;;;;157.18;17.15;;;10.70;97.80;;;;;;5061591;28;20107;-58
2023/03/12 11:46:10;;;;;;;149.63;15.95;;;10.40;97.80;;;;;;5051093;28;20040;-58
2023/03/12 11:48:58;;;;;;;141.88;16.88;;;10.80;97.90;;;;;;5043268;28;20057;-58
2023/03/12 11:51:30;;;;;;;150.90;16.25;;;10.80;97.90;;;;;;5043353;28;20026;-58
2023/03/12 11:54:12;;;;;;;61.28;7.43;;;10.90;98.00;;;;;;5040638;28;20025;-58
2023/03/12 11:56:39;;;;;;;79.40;9.48;;;10.90;98.00;;;;;;5040902;28;20336;-58
2023/03/12 11:59:37;;;;;;;88.18;9.23;;;11.10;98.00;;;;;;5041402;28;20549;-58
2023/03/12 12:02:21;;;;;;;126.82;13.95;;;11.00;98.00;;;;;;5043904;28;20041;-58
2023/03/12 12:05:19;;;;;;;132.32;13.60;;;11.10;98.10;;;;;;5025338;28;20084;-58
2023/03/12 12:08:03;;;;;;;124.93;15.82;;;11.10;98.00;;;;;;5019263;28;20113;-58
2023/03/12 12:11:16;;;;;;;125.82;13.70;;;11.20;97.80;;;;;;5031462;28;20055;-58
2023/03/12 12:13:46;;;;;;;140.43;13.55;;;11.20;97.80;;;;;;5039302;28;20030;-58
2023/03/12 12:16:37;;;;;;;131.85;14.55;;;11.30;97.80;;;;;;5040032;28;20029;-58
2023/03/12 12:19:17;;;;;;;153.13;16.75;;;11.30;97.80;;;;;;5023430;28;20044;-58
2023/03/12 12:21:55;;;;;;;137.68;14.90;;;11.30;98.00;;;;;;5042634;28;20037;-58
2023/03/12 12:24:37;;;;;;;132.02;14.75;;;11.40;98.10;;;;;;5043571;28;20029;-58
2023/03/12 12:27:10;;;;;;;135.60;14.32;;;11.50;98.10;;;;;;5055641;28;20033;-58
2023/03/12 12:30:14;;;;;;;123.85;14.35;;;11.50;98.10;;;;;;5050683;28;20048;-58
2023/03/12 12:33:18;;;;;;;222.13;23.42;;;11.50;98.10;;;;;;5045418;28;20464;-58
2023/03/12 12:35:44;;;;;;;158.75;16.00;;;11.60;98.10;;;;;;5041674;28;20029;-58
2023/03/12 12:38:32;;;;;;;162.00;16.52;;;11.80;98.10;;;;;;5044869;28;20034;-58
2023/03/12 12:41:24;;;;;;;140.27;13.88;;;11.70;98.30;;;;;;5043607;28;20028;-58
2023/03/12 12:43:50;;;;;;;159.07;15.25;;;11.70;98.00;;;;;;5048116;28;20041;-58
2023/03/12 12:46:24;;;;;;;152.68;17.58;;;11.80;98.10;;;;;;5050586;28;20025;-58
2023/03/12 12:49:02;;;;;;;220.80;20.90;;;11.80;98.10;;;;;;5054270;28;20044;-58
2023/03/12 12:51:40;;;;;;;126.03;15.38;;;11.90;98.40;;;;;;5036487;28;20034;-58
2023/03/12 12:54:46;;;;;;;156.50;16.35;;;12.00;98.10;;;;;;5036657;28;20020;-58
2023/03/12 12:57:16;;;;;;;141.10;15.13;;;12.00;98.20;;;;;;5047892;28;20099;-58
2023/03/12 13:00:19;;;;;;;131.07;14.05;;;12.00;98.10;;;;;;5051133;28;20064;-58